Manzanita, Oregon
Current Conditions -  °F | °C
As of 9:55 AM on Monday 26 Jan 2015 (Local Time) from KAST Reporting Station
Clear Clear  
Wind Chill: 50°   Ceiling: Unl
Heat Index: 50°   Visibility: 10mi
Dew Point: 45°   Wind: 5mph
Humidity: 83%   Direction: 10°N
Pressure: 29.96"   Gusts: NA
Location:  45.72°N, 123.94°W
Report Text: KAST 261755Z AUTO 01004KT 10SM CLR 10/07 A2996 RMK AO2 SLP145 T01000072 10100 20028 53005
Loading
Personal Weather Stations






























Interactive Weather Map New forecast layout! Learn more

10-Day Weather Forecast

Advertisements
Track Severe Weather on mobile